createdAt,value
2023-03-26T00:01:30.608Z,1.70
2023-03-26T00:03:58.297Z,1.60
2023-03-26T00:06:29.310Z,1.70
2023-03-26T00:08:58.476Z,1.70
2023-03-26T00:11:28.946Z,1.70
2023-03-26T00:13:58.232Z,1.60
2023-03-26T00:16:30.742Z,1.60
2023-03-26T00:18:58.722Z,1.60
2023-03-26T00:21:29.995Z,1.50
2023-03-26T00:24:00.850Z,1.40
2023-03-26T00:26:28.687Z,1.60
2023-03-26T00:28:55.979Z,1.50
2023-03-26T00:31:23.700Z,1.40
2023-03-26T00:33:52.993Z,1.30
2023-03-26T00:36:20.582Z,1.40
2023-03-26T00:38:48.592Z,1.30
2023-03-26T00:41:19.461Z,1.30
2023-03-26T00:43:46.982Z,1.20
2023-03-26T00:46:15.086Z,1.20
2023-03-26T00:48:45.574Z,1.10
2023-03-26T00:51:16.084Z,1.10
2023-03-26T00:53:46.761Z,1.10
2023-03-26T00:56:14.433Z,1.00
2023-03-26T00:58:41.965Z,1.10
2023-03-26T01:01:25.347Z,1.00
2023-03-26T01:04:06.910Z,1.00
2023-03-26T01:06:39.859Z,1.00
2023-03-26T01:09:18.107Z,1.10
2023-03-26T01:11:46.239Z,1.00
2023-03-26T01:14:20.541Z,1.00
2023-03-26T01:17:01.340Z,0.90
2023-03-26T01:19:46.437Z,0.80
2023-03-26T01:22:19.157Z,0.80
2023-03-26T01:24:47.070Z,0.90
2023-03-26T01:27:31.604Z,0.90
2023-03-26T01:30:25.611Z,0.80
2023-03-26T01:33:36.861Z,0.80
2023-03-26T01:36:26.112Z,0.90
2023-03-26T01:39:17.222Z,0.90
2023-03-26T01:41:54.640Z,0.70
2023-03-26T01:45:03.555Z,0.70
2023-03-26T01:47:32.714Z,0.80
2023-03-26T01:49:59.912Z,0.80
2023-03-26T01:52:27.090Z,0.70
2023-03-26T01:54:57.103Z,0.70
2023-03-26T01:57:35.201Z,0.60
2023-03-26T03:13:05.080Z,0.60
2023-03-26T03:17:59.861Z,0.30
2023-03-26T03:20:27.142Z,0.30
2023-03-26T03:22:54.257Z,0.20
2023-03-26T03:25:21.446Z,0.30
2023-03-26T03:27:48.611Z,0.20
2023-03-26T03:30:16.311Z,0.30
2023-03-26T03:32:43.603Z,0.20
2023-03-26T03:35:10.778Z,0.30
2023-03-26T03:37:37.985Z,0.30
2023-03-26T03:40:06.179Z,0.30
2023-03-26T03:42:33.628Z,0.30
2023-03-26T03:45:00.921Z,0.30
2023-03-26T03:47:28.261Z,0.30
2023-03-26T03:49:55.390Z,0.40
2023-03-26T03:52:22.993Z,0.30
2023-03-26T03:54:50.172Z,0.40
2023-03-26T03:57:17.726Z,0.40
2023-03-26T03:59:47.648Z,0.40
2023-03-26T04:02:16.400Z,0.40
2023-03-26T04:04:43.607Z,0.40
2023-03-26T04:07:10.899Z,0.40
2023-03-26T04:09:38.216Z,0.30
2023-03-26T04:12:05.722Z,0.40
2023-03-26T04:14:32.927Z,0.50
2023-03-26T04:17:00.136Z,0.40
2023-03-26T04:19:27.402Z,0.30
2023-03-26T04:21:54.918Z,0.30
2023-03-26T04:24:22.093Z,0.20
2023-03-26T04:26:49.544Z,0.10
2023-03-26T04:29:17.288Z,0.10
2023-03-26T04:31:44.923Z,0.10
2023-03-26T04:34:30.342Z,0.10
2023-03-26T04:36:57.548Z,0.10
2023-03-26T04:39:25.050Z,0.00
2023-03-26T04:41:52.184Z,0.00
2023-03-26T04:44:19.809Z,0.10
2023-03-26T04:46:46.969Z,0.10
2023-03-26T04:49:14.408Z,0.10
2023-03-26T04:51:42.271Z,0.10
2023-03-26T04:54:14.022Z,0.00
2023-03-26T04:56:49.942Z,0.00
2023-03-26T04:59:34.388Z,0.00
2023-03-26T05:02:06.401Z,0.00
2023-03-26T05:04:33.786Z,0.20
2023-03-26T05:07:01.022Z,0.10
2023-03-26T05:09:28.875Z,0.10
2023-03-26T05:11:56.178Z,0.10
2023-03-26T05:14:23.426Z,0.10
2023-03-26T05:16:51.746Z,0.20
2023-03-26T05:19:19.370Z,0.20
2023-03-26T05:21:48.012Z,0.20
2023-03-26T05:24:15.560Z,0.20
2023-03-26T05:26:43.043Z,0.30
2023-03-26T05:29:10.406Z,0.30
2023-03-26T05:31:37.623Z,0.40
2023-03-26T05:34:05.022Z,0.40
2023-03-26T05:36:32.414Z,0.50
2023-03-26T05:38:59.830Z,0.50
2023-03-26T05:41:27.165Z,0.50
2023-03-26T05:43:54.410Z,0.60
2023-03-26T05:46:21.862Z,0.60
2023-03-26T05:48:49.850Z,0.70
2023-03-26T05:51:17.135Z,0.70
2023-03-26T05:53:44.374Z,0.70
2023-03-26T05:56:11.520Z,0.70
2023-03-26T05:58:39.179Z,0.80
2023-03-26T06:01:10.711Z,0.90
2023-03-26T06:03:40.197Z,0.80
2023-03-26T06:06:10.981Z,0.90
2023-03-26T06:08:38.246Z,0.90
2023-03-26T06:11:06.251Z,0.90
2023-03-26T06:13:34.479Z,1.00
2023-03-26T06:16:01.864Z,1.10
2023-03-26T06:18:29.136Z,1.10
2023-03-26T06:20:56.671Z,1.10
2023-03-26T06:23:24.106Z,1.10
2023-03-26T06:25:51.618Z,1.30
2023-03-26T06:28:19.258Z,1.30
2023-03-26T06:30:46.750Z,1.40
2023-03-26T06:33:14.308Z,1.40
2023-03-26T06:35:41.987Z,1.50
2023-03-26T06:38:09.468Z,1.50
2023-03-26T06:40:36.934Z,1.60
2023-03-26T06:43:09.246Z,1.70
2023-03-26T06:45:38.211Z,1.80
2023-03-26T06:48:05.954Z,1.80
2023-03-26T06:50:33.261Z,1.90
2023-03-26T06:53:01.053Z,2.00
2023-03-26T06:55:28.378Z,2.20
2023-03-26T06:57:56.104Z,2.30
2023-03-26T07:00:24.643Z,2.40
2023-03-26T07:02:52.557Z,2.50
2023-03-26T07:05:20.157Z,2.60
2023-03-26T07:07:49.710Z,2.70
2023-03-26T07:10:16.952Z,2.70
2023-03-26T07:12:44.156Z,2.80
2023-03-26T07:15:11.486Z,2.80
2023-03-26T07:17:38.829Z,2.90
2023-03-26T07:20:08.687Z,2.90
2023-03-26T07:22:36.443Z,2.90
2023-03-26T07:25:04.533Z,2.90
2023-03-26T07:28:08.947Z,2.90
2023-03-26T07:31:01.008Z,2.90
2023-03-26T07:34:02.404Z,3.00
2023-03-26T07:36:46.524Z,3.10
2023-03-26T07:39:43.215Z,3.20
2023-03-26T07:42:36.114Z,3.30
2023-03-26T07:45:31.234Z,3.40
2023-03-26T07:47:58.927Z,3.50
2023-03-26T07:50:26.658Z,3.60
2023-03-26T07:52:54.281Z,3.70
2023-03-26T07:55:21.762Z,3.70
2023-03-26T07:58:30.899Z,3.80
2023-03-26T08:01:16.471Z,3.90
2023-03-26T08:04:25.797Z,3.90
2023-03-26T08:07:08.201Z,4.00
2023-03-26T08:10:12.600Z,4.10
2023-03-26T08:13:04.736Z,4.10
2023-03-26T08:15:41.699Z,4.20
2023-03-26T08:18:26.521Z,4.30
2023-03-26T08:21:11.761Z,4.30
2023-03-26T08:24:13.031Z,4.50
2023-03-26T08:27:01.574Z,4.50
2023-03-26T08:29:42.711Z,4.60
2023-03-26T08:32:17.803Z,4.70
2023-03-26T08:34:46.210Z,4.80
2023-03-26T08:37:13.989Z,4.80
2023-03-26T08:39:41.302Z,5.00
2023-03-26T08:42:39.097Z,5.30
2023-03-26T08:46:12.415Z,5.70
2023-03-26T08:49:13.848Z,5.90
2023-03-26T08:52:34.122Z,6.10
2023-03-26T08:55:26.044Z,6.10
2023-03-26T08:57:59.255Z,6.20
2023-03-26T09:00:53.436Z,6.30
2023-03-26T09:03:57.828Z,6.50
2023-03-26T09:07:02.758Z,6.50
2023-03-26T09:10:30.370Z,6.70
2023-03-26T09:13:36.964Z,6.80
2023-03-26T09:16:48.822Z,6.90
2023-03-26T09:19:49.240Z,7.00
2023-03-26T09:23:06.969Z,7.20
2023-03-26T09:26:11.664Z,7.30
2023-03-26T09:29:25.045Z,7.50
2023-03-26T09:32:40.481Z,7.60
2023-03-26T09:35:38.793Z,7.50
2023-03-26T09:38:17.609Z,7.50
2023-03-26T09:41:22.304Z,7.60
2023-03-26T09:44:29.040Z,7.50
2023-03-26T09:47:35.092Z,7.70
2023-03-26T09:50:34.904Z,7.90
2023-03-26T09:53:16.785Z,8.30
2023-03-26T09:56:16.342Z,8.50
2023-03-26T09:59:19.816Z,8.60
2023-03-26T10:02:46.454Z,8.70
2023-03-26T10:05:29.944Z,8.90
2023-03-26T10:08:24.293Z,9.20
2023-03-26T10:11:31.423Z,9.30
2023-03-26T10:14:15.483Z,9.30
2023-03-26T10:17:39.644Z,9.50
2023-03-26T10:20:41.980Z,9.50
2023-03-26T10:23:37.119Z,9.60
2023-03-26T10:27:08.371Z,9.60
2023-03-26T10:30:14.953Z,9.60
2023-03-26T10:33:07.009Z,9.50
2023-03-26T10:35:51.183Z,9.60
2023-03-26T10:38:54.457Z,9.70
2023-03-26T10:42:11.605Z,9.90
2023-03-26T10:45:07.402Z,10.50
2023-03-26T10:47:49.831Z,11.30
2023-03-26T10:50:42.354Z,11.70
2023-03-26T10:53:42.776Z,11.70
2023-03-26T10:56:28.559Z,11.50
2023-03-26T10:58:57.285Z,11.10
2023-03-26T11:01:33.352Z,11.00
2023-03-26T11:04:45.135Z,11.00
2023-03-26T11:07:39.063Z,11.00
2023-03-26T11:10:46.632Z,11.00
2023-03-26T11:13:36.653Z,11.20
2023-03-26T11:16:14.309Z,11.70
2023-03-26T11:18:49.975Z,11.90
2023-03-26T11:21:52.172Z,12.00
2023-03-26T11:25:12.853Z,12.10
2023-03-26T11:28:13.622Z,11.90
2023-03-26T12:58:59.698Z,9.40
2023-03-26T13:01:40.120Z,9.40
2023-03-26T13:05:05.615Z,9.30
2023-03-26T13:08:05.814Z,9.30
2023-03-26T13:11:02.019Z,9.20
2023-03-26T13:13:50.486Z,9.10
2023-03-26T13:16:36.101Z,9.20
2023-03-26T13:19:53.521Z,9.20
2023-03-26T13:22:36.864Z,9.10
2023-03-26T13:25:33.668Z,9.10
2023-03-26T13:28:38.063Z,9.10
2023-03-26T13:31:59.344Z,9.10
2023-03-26T13:34:53.813Z,9.00
2023-03-26T13:37:43.350Z,8.90
2023-03-26T13:41:00.124Z,8.90
2023-03-26T13:43:52.749Z,8.80
2023-03-26T13:46:51.734Z,8.70
2023-03-26T13:49:42.812Z,8.70
2023-03-26T13:52:30.766Z,8.50
2023-03-26T13:55:36.930Z,8.40
2023-03-26T13:58:34.295Z,8.20
2023-03-26T14:01:22.670Z,8.20
2023-03-26T14:03:58.656Z,8.10
2023-03-26T14:06:40.916Z,8.10
2023-03-26T14:09:22.260Z,8.00
2023-03-26T14:12:00.625Z,8.00
2023-03-26T14:15:07.288Z,7.90
2023-03-26T14:18:24.708Z,7.90
2023-03-26T14:21:49.729Z,7.80
2023-03-26T14:25:12.477Z,7.60
2023-03-26T14:28:19.372Z,7.30
2023-03-26T14:31:34.193Z,7.00
2023-03-26T14:34:26.547Z,6.80
2023-03-26T14:37:06.099Z,6.60
2023-03-26T14:40:22.510Z,6.50
2023-03-26T14:43:29.218Z,6.50
2023-03-26T14:46:39.917Z,6.40
2023-03-26T14:49:33.000Z,6.40
2023-03-26T14:52:47.468Z,6.20
2023-03-26T14:55:40.546Z,6.10
2023-03-26T14:58:32.170Z,6.10
2023-03-26T15:01:25.350Z,5.80
2023-03-26T15:04:07.752Z,5.70
2023-03-26T15:07:02.872Z,5.60
2023-03-26T15:10:00.973Z,5.60
2023-03-26T15:12:37.514Z,5.60
2023-03-26T15:15:54.052Z,5.40
2023-03-26T15:18:59.749Z,5.30
2023-03-26T15:22:20.050Z,5.30
2023-03-26T15:25:05.559Z,5.20
2023-03-26T15:28:30.864Z,5.10
2023-03-26T15:31:49.358Z,5.00
2023-03-26T15:35:16.126Z,4.90
2023-03-26T15:38:10.304Z,4.80
2023-03-26T15:41:26.765Z,4.60
2023-03-26T15:44:23.346Z,4.50
2023-03-26T15:47:18.445Z,4.40
2023-03-26T15:49:55.006Z,4.40
2023-03-26T15:52:38.713Z,4.50
2023-03-26T15:56:00.712Z,4.50
2023-03-26T15:59:18.990Z,4.40
2023-03-26T16:02:19.931Z,4.30
2023-03-26T16:05:24.255Z,4.20
2023-03-26T16:08:37.381Z,4.20
2023-03-26T16:11:06.861Z,4.20
2023-03-26T16:13:50.128Z,4.30
2023-03-26T16:16:34.181Z,4.30
2023-03-26T16:19:19.568Z,4.30
2023-03-26T16:22:00.712Z,4.30
2023-03-26T16:24:35.660Z,4.20
2023-03-26T16:27:05.876Z,4.20
2023-03-26T16:29:34.632Z,4.20
2023-03-26T16:32:23.012Z,4.20
2023-03-26T16:35:16.542Z,4.30
2023-03-26T16:38:06.947Z,4.20
2023-03-26T16:40:50.786Z,4.10
2023-03-26T16:43:43.825Z,4.00
2023-03-26T16:46:29.309Z,4.00
2023-03-26T16:49:44.953Z,4.00
2023-03-26T16:52:42.322Z,4.00
2023-03-26T16:55:30.956Z,3.90
2023-03-26T16:58:21.358Z,3.90
2023-03-26T17:01:17.701Z,3.90
2023-03-26T17:03:54.521Z,3.80
2023-03-26T17:07:18.270Z,3.80
2023-03-26T17:10:23.323Z,3.80
2023-03-26T17:13:08.477Z,3.80
2023-03-26T17:15:56.017Z,3.70
2023-03-26T17:19:05.426Z,3.80
2023-03-26T17:21:45.999Z,3.70
2023-03-26T17:24:45.056Z,3.80
2023-03-26T17:27:54.968Z,3.70
2023-03-26T17:31:04.475Z,3.70
2023-03-26T17:33:38.026Z,3.60
2023-03-26T17:36:20.469Z,3.60
2023-03-26T17:38:50.294Z,3.70
2023-03-26T17:41:53.119Z,3.60
2023-03-26T17:44:42.051Z,3.60
2023-03-26T17:47:22.902Z,3.70
2023-03-26T17:49:59.734Z,3.60
2023-03-26T17:53:01.785Z,3.60
2023-03-26T17:55:37.905Z,3.60
2023-03-26T17:58:21.216Z,3.60
2023-03-26T18:01:17.298Z,3.60
2023-03-26T18:04:02.014Z,3.60
2023-03-26T18:07:14.494Z,3.50
2023-03-26T18:10:09.246Z,3.50
2023-03-26T18:12:55.759Z,3.40
2023-03-26T18:15:48.084Z,3.50
2023-03-26T18:18:34.652Z,3.40
2023-03-26T18:21:06.409Z,3.50
2023-03-26T18:23:46.210Z,3.50
2023-03-26T18:26:18.999Z,3.40
2023-03-26T18:28:53.805Z,3.40
2023-03-26T18:31:26.546Z,3.40
2023-03-26T18:34:06.460Z,3.40
2023-03-26T18:36:33.609Z,3.40
2023-03-26T18:39:03.500Z,3.40
2023-03-26T18:41:37.188Z,3.40
2023-03-26T18:44:15.963Z,3.50
2023-03-26T18:46:44.561Z,3.50
2023-03-26T18:49:17.161Z,3.50
2023-03-26T18:51:56.084Z,3.50
2023-03-26T18:54:26.727Z,3.50
2023-03-26T18:56:53.925Z,3.50
2023-03-26T18:59:30.608Z,3.50
2023-03-26T19:02:02.178Z,3.50
2023-03-26T19:04:32.100Z,3.40
2023-03-26T19:07:01.164Z,3.30
2023-03-26T19:09:32.105Z,3.40
2023-03-26T19:12:23.047Z,3.40
2023-03-26T19:15:10.156Z,3.30
2023-03-26T19:17:46.851Z,3.30
2023-03-26T19:20:33.205Z,3.40
2023-03-26T19:23:00.708Z,3.30
2023-03-26T19:26:02.436Z,3.30
2023-03-26T19:28:36.726Z,3.30
2023-03-26T19:31:10.405Z,3.40
2023-03-26T19:33:42.155Z,3.40
2023-03-26T19:36:20.961Z,3.50
2023-03-26T19:38:59.754Z,3.50
2023-03-26T19:41:36.757Z,3.50
2023-03-26T19:44:27.687Z,3.60
2023-03-26T19:47:31.952Z,3.50
2023-03-26T19:50:30.059Z,3.40
2023-03-26T19:53:19.064Z,3.50
2023-03-26T19:55:56.977Z,3.50
2023-03-26T19:58:27.657Z,3.40
2023-03-26T20:00:55.859Z,3.30
2023-03-26T20:03:42.133Z,3.40
2023-03-26T20:06:18.116Z,3.40
2023-03-26T20:08:46.113Z,3.40
2023-03-26T20:11:22.854Z,3.40
2023-03-26T20:13:51.155Z,3.40
2023-03-26T20:16:34.321Z,3.40
2023-03-26T20:19:01.634Z,3.40
2023-03-26T20:21:31.046Z,3.40
2023-03-26T20:23:59.257Z,3.40
2023-03-26T20:26:26.668Z,3.40
2023-03-26T20:28:54.083Z,3.40
2023-03-26T20:31:26.021Z,3.40
2023-03-26T20:33:54.365Z,3.40
2023-03-26T20:36:33.778Z,3.40
2023-03-26T20:39:03.844Z,3.40
2023-03-26T20:41:31.096Z,3.40
2023-03-26T20:43:58.257Z,3.30
2023-03-26T20:46:31.195Z,3.40
2023-03-26T20:48:59.849Z,3.40
2023-03-26T20:51:27.679Z,3.40
2023-03-26T20:53:54.942Z,3.30
2023-03-26T20:56:22.097Z,3.40
2023-03-26T20:58:52.654Z,3.30
2023-03-26T21:01:25.096Z,3.30
2023-03-26T21:03:52.285Z,3.30
2023-03-26T21:06:19.650Z,3.40
2023-03-26T21:08:47.161Z,3.30
2023-03-26T21:11:34.754Z,3.20
2023-03-26T21:14:15.150Z,3.10
2023-03-26T21:16:42.883Z,3.10
2023-03-26T21:19:10.700Z,3.10
2023-03-26T21:22:24.043Z,3.10
2023-03-26T21:25:14.905Z,3.10
2023-03-26T21:28:39.804Z,3.20
2023-03-26T21:31:22.711Z,3.20
2023-03-26T21:33:51.362Z,3.20
2023-03-26T21:36:20.153Z,3.00
2023-03-26T21:38:47.707Z,3.00
2023-03-26T21:41:28.527Z,3.00
2023-03-26T21:43:55.709Z,3.00
2023-03-26T21:46:23.264Z,3.00
2023-03-26T21:48:50.782Z,3.00
2023-03-26T21:51:18.548Z,3.00
2023-03-26T21:53:46.252Z,2.90
2023-03-26T21:56:22.332Z,2.90
2023-03-26T21:59:18.733Z,2.90
2023-03-26T22:02:21.223Z,3.00
2023-03-26T22:05:00.703Z,2.90
2023-03-26T22:07:48.342Z,2.90
2023-03-26T22:10:15.679Z,2.90
2023-03-26T22:12:42.866Z,2.90
2023-03-26T22:15:10.893Z,2.90
2023-03-26T22:17:38.081Z,2.80
2023-03-26T22:20:06.305Z,2.80
2023-03-26T22:22:33.488Z,2.80
2023-03-26T22:25:00.689Z,2.90
2023-03-26T22:27:27.992Z,2.90
2023-03-26T22:29:55.157Z,3.00
2023-03-26T22:32:22.512Z,3.00
2023-03-26T22:34:49.696Z,3.00
2023-03-26T22:37:16.906Z,3.00
2023-03-26T22:39:44.205Z,3.10
2023-03-26T22:42:11.302Z,3.10
2023-03-26T22:44:38.463Z,3.10
2023-03-26T22:47:06.008Z,3.10
2023-03-26T22:49:33.177Z,3.10
2023-03-26T22:52:00.553Z,3.10
2023-03-26T22:54:27.694Z,3.00
2023-03-26T22:56:54.960Z,3.10
2023-03-26T22:59:22.141Z,3.00
2023-03-26T23:01:49.303Z,3.00
2023-03-26T23:04:31.191Z,3.00
2023-03-26T23:06:59.571Z,3.00
2023-03-26T23:09:26.870Z,3.00
2023-03-26T23:11:53.995Z,3.00
2023-03-26T23:14:21.164Z,2.90
2023-03-26T23:16:48.697Z,2.90
2023-03-26T23:19:16.699Z,3.00
2023-03-26T23:21:43.936Z,3.00
2023-03-26T23:24:11.110Z,2.90
2023-03-26T23:26:49.427Z,2.90
2023-03-26T23:29:17.609Z,2.80
2023-03-26T23:31:44.786Z,2.80
2023-03-26T23:34:11.974Z,2.80
2023-03-26T23:36:39.536Z,2.80
2023-03-26T23:39:06.813Z,2.70
2023-03-26T23:41:34.061Z,2.70
2023-03-26T23:44:01.362Z,2.70
2023-03-26T23:46:29.360Z,2.70
2023-03-26T23:48:56.525Z,2.70
2023-03-26T23:51:23.704Z,2.70
2023-03-26T23:53:51.631Z,2.70
2023-03-26T23:56:18.870Z,2.70
2023-03-26T23:58:46.105Z,2.70
